createdAt,value
2018-12-03T00:01:22.468Z,12.10
2018-12-03T00:04:29.352Z,12.10
2018-12-03T00:07:16.879Z,12.10
2018-12-03T00:10:04.740Z,12.10
2018-12-03T00:12:52.355Z,12.10
2018-12-03T00:15:40.216Z,12.00
2018-12-03T00:18:28.315Z,12.10
2018-12-03T00:21:15.841Z,12.10
2018-12-03T00:24:03.520Z,12.10
2018-12-03T00:26:51.026Z,12.30
2018-12-03T00:29:39.039Z,12.30
2018-12-03T00:32:26.563Z,12.30
2018-12-03T00:35:14.338Z,12.30
2018-12-03T00:38:02.123Z,12.40
2018-12-03T00:40:49.622Z,12.40
2018-12-03T00:43:37.152Z,12.70
2018-12-03T00:46:25.084Z,12.80
2018-12-03T00:49:13.187Z,12.80
2018-12-03T00:52:01.027Z,12.80
2018-12-03T00:54:48.804Z,12.70
2018-12-03T00:57:36.688Z,12.60
2018-12-03T01:00:24.562Z,12.50
2018-12-03T01:03:12.079Z,12.50
2018-12-03T01:05:59.690Z,12.50
2018-12-03T01:08:47.207Z,12.30
2018-12-03T01:11:35.055Z,12.20
2018-12-03T01:14:22.980Z,12.20
2018-12-03T01:17:10.706Z,12.10
2018-12-03T01:19:58.278Z,11.90
2018-12-03T01:23:05.267Z,12.00
2018-12-03T01:25:34.146Z,11.90
2018-12-03T01:28:21.956Z,11.90
2018-12-03T01:31:10.096Z,11.90
2018-12-03T01:33:57.720Z,11.90
2018-12-03T01:36:45.488Z,11.90
2018-12-03T01:39:33.307Z,11.90
2018-12-03T01:42:21.172Z,11.90
2018-12-03T01:48:24.599Z,12.10
2018-12-03T01:51:12.219Z,11.90
2018-12-03T01:54:00.360Z,11.80
2018-12-03T01:56:48.572Z,11.70
2018-12-03T01:59:36.621Z,11.70
2018-12-03T02:02:24.928Z,11.60
2018-12-03T02:05:13.043Z,11.60
2018-12-03T02:08:00.565Z,11.50
2018-12-03T02:10:48.404Z,11.50
2018-12-03T02:13:36.809Z,11.60
2018-12-03T02:16:05.972Z,11.60
2018-12-03T02:18:53.483Z,11.60
2018-12-03T02:21:41.258Z,11.60
2018-12-03T02:24:29.312Z,11.60
2018-12-03T02:27:17.090Z,11.50
2018-12-03T02:30:26.338Z,11.50
2018-12-03T02:33:14.117Z,11.50
2018-12-03T02:36:01.892Z,11.50
2018-12-03T02:38:49.715Z,11.50
2018-12-03T02:41:37.257Z,11.50
2018-12-03T02:44:25.345Z,11.60
2018-12-03T02:47:12.988Z,11.50
2018-12-03T02:50:00.494Z,11.60
2018-12-03T02:52:48.334Z,11.60
2018-12-03T02:55:35.869Z,11.70
2018-12-03T02:58:23.405Z,11.70
2018-12-03T03:01:11.346Z,11.60
2018-12-03T03:03:58.872Z,11.70
2018-12-03T03:06:46.512Z,11.70
2018-12-03T03:09:34.535Z,11.60
2018-12-03T03:12:22.306Z,11.70
2018-12-03T03:15:28.952Z,11.70
2018-12-03T03:18:16.472Z,11.70
2018-12-03T03:21:04.335Z,11.70
2018-12-03T03:23:52.116Z,11.70
2018-12-03T03:26:39.898Z,11.70
2018-12-03T03:29:27.676Z,11.80
2018-12-03T03:32:15.192Z,11.80
2018-12-03T03:35:02.825Z,11.90
2018-12-03T03:37:51.133Z,11.90
2018-12-03T03:40:39.266Z,11.90
2018-12-03T03:43:27.095Z,12.00
2018-12-03T03:45:55.983Z,12.00
2018-12-03T03:48:43.828Z,11.90
2018-12-03T03:51:31.335Z,11.90
2018-12-03T03:54:25.059Z,11.90
2018-12-03T03:57:09.113Z,12.00
2018-12-03T03:59:56.873Z,12.00
2018-12-03T04:02:44.953Z,12.10
2018-12-03T04:05:32.476Z,12.10
2018-12-03T04:08:20.510Z,12.20
2018-12-03T04:11:08.049Z,12.20
2018-12-03T04:13:55.938Z,12.20
2018-12-03T04:16:43.441Z,12.10
2018-12-03T04:19:31.244Z,12.10
2018-12-03T04:22:18.766Z,12.20
2018-12-03T04:25:06.943Z,12.20
2018-12-03T04:27:54.704Z,12.30
2018-12-03T04:30:34.612Z,12.30
2018-12-03T04:33:15.782Z,12.20
2018-12-03T04:35:56.182Z,12.20
2018-12-03T04:38:36.307Z,12.20
2018-12-03T04:41:15.452Z,12.20
2018-12-03T04:44:03.367Z,12.20
2018-12-03T04:46:51.605Z,12.20
2018-12-03T04:49:39.644Z,12.20
2018-12-03T04:52:27.151Z,12.20
2018-12-03T04:58:15.305Z,12.20
2018-12-03T05:01:03.271Z,12.20
2018-12-03T05:03:51.923Z,12.30
2018-12-03T05:06:39.576Z,12.30
2018-12-03T05:09:27.441Z,12.20
2018-12-03T05:12:14.955Z,12.20
2018-12-03T05:15:02.496Z,12.20
2018-12-03T05:17:50.011Z,12.10
2018-12-03T05:20:38.018Z,12.10
2018-12-03T05:23:25.788Z,12.10
2018-12-03T05:26:13.587Z,12.00
2018-12-03T05:29:01.107Z,12.10
2018-12-03T05:31:48.900Z,12.10
2018-12-03T05:34:36.678Z,12.10
2018-12-03T05:37:24.198Z,12.10
2018-12-03T05:40:31.095Z,12.10
2018-12-03T05:43:18.631Z,12.10
2018-12-03T05:46:06.416Z,12.20
2018-12-03T05:48:53.928Z,12.10
2018-12-03T05:52:00.928Z,12.20
2018-12-03T05:54:48.741Z,12.20
2018-12-03T05:57:36.268Z,12.10
2018-12-03T06:00:24.381Z,12.10
2018-12-03T06:03:12.156Z,12.00
2018-12-03T06:05:59.668Z,12.00
2018-12-03T06:08:47.487Z,12.00
2018-12-03T06:11:35.606Z,11.90
2018-12-03T06:14:23.438Z,11.90
2018-12-03T06:17:11.283Z,12.00
2018-12-03T06:19:58.784Z,11.90
2018-12-03T06:22:46.642Z,11.90
2018-12-03T06:25:34.150Z,11.90
2018-12-03T06:28:22.010Z,11.90
2018-12-03T06:31:10.006Z,11.90
2018-12-03T06:33:57.934Z,11.90
2018-12-03T06:36:45.723Z,11.90
2018-12-03T06:39:33.238Z,11.90
2018-12-03T06:42:21.083Z,11.80
2018-12-03T06:48:37.976Z,11.90
2018-12-03T06:51:25.755Z,12.00
2018-12-03T06:54:13.281Z,12.00
2018-12-03T06:57:01.323Z,11.90
2018-12-03T06:59:48.839Z,11.90
2018-12-03T07:02:36.355Z,11.90
2018-12-03T07:05:23.877Z,12.00
2018-12-03T07:08:11.383Z,12.00
2018-12-03T07:10:59.127Z,12.10
2018-12-03T07:13:46.948Z,12.10
2018-12-03T07:16:34.563Z,12.10
2018-12-03T07:19:22.427Z,12.10
2018-12-03T07:22:10.520Z,12.00
2018-12-03T07:24:58.035Z,12.00
2018-12-03T07:27:45.559Z,12.10
2018-12-03T07:30:33.075Z,12.10
2018-12-03T07:33:20.989Z,12.10
2018-12-03T07:36:08.754Z,12.10
2018-12-03T07:38:56.315Z,12.10
2018-12-03T07:41:44.286Z,12.20
2018-12-03T07:44:32.171Z,12.20
2018-12-03T07:47:20.243Z,12.20
2018-12-03T07:50:08.924Z,12.20
2018-12-03T07:52:56.784Z,12.20
2018-12-03T07:55:44.560Z,12.20
2018-12-03T07:58:32.303Z,12.20
2018-12-03T08:01:21.020Z,12.20
2018-12-03T08:04:09.054Z,12.20
2018-12-03T08:06:57.323Z,12.20
2018-12-03T08:09:44.819Z,12.30
2018-12-03T08:12:32.640Z,12.30
2018-12-03T08:15:20.506Z,12.30
2018-12-03T08:18:08.786Z,12.30
2018-12-03T08:20:57.477Z,12.30
2018-12-03T08:24:04.627Z,12.30
2018-12-03T08:26:52.255Z,12.30
2018-12-03T08:29:40.060Z,12.40
2018-12-03T08:32:27.891Z,12.50
2018-12-03T08:35:16.286Z,12.50
2018-12-03T08:38:23.237Z,12.60
2018-12-03T08:41:11.123Z,12.70
2018-12-03T08:43:58.939Z,12.80
2018-12-03T08:46:46.520Z,12.90
2018-12-03T08:49:34.407Z,12.90
2018-12-03T08:52:22.200Z,12.80
2018-12-03T08:58:38.719Z,12.80
2018-12-03T09:01:26.868Z,12.80
2018-12-03T09:04:15.599Z,12.80
2018-12-03T09:07:03.223Z,12.80
2018-12-03T09:09:50.736Z,12.90
2018-12-03T09:12:38.734Z,12.90
2018-12-03T09:15:26.224Z,13.00
2018-12-03T09:18:13.758Z,13.00
2018-12-03T09:21:01.464Z,13.00
2018-12-03T09:26:48.307Z,13.00
2018-12-03T09:29:36.244Z,13.00
2018-12-03T09:35:22.855Z,13.00
2018-12-03T09:38:10.644Z,13.00
2018-12-03T09:40:58.962Z,13.00
2018-12-03T09:43:47.064Z,13.00
2018-12-03T09:46:35.408Z,13.00
2018-12-03T09:49:23.260Z,13.00
2018-12-03T09:52:10.792Z,12.90
2018-12-03T09:54:58.579Z,13.00
2018-12-03T09:58:05.219Z,12.90
2018-12-03T10:00:52.756Z,12.90
2018-12-03T10:04:00.085Z,12.80
2018-12-03T10:06:47.860Z,12.80
2018-12-03T10:09:54.982Z,12.80
2018-12-03T10:12:42.964Z,12.80
2018-12-03T10:15:30.594Z,12.80
2018-12-03T10:18:18.396Z,12.80
2018-12-03T10:21:06.279Z,12.80
2018-12-03T10:23:53.804Z,12.80
2018-12-03T10:26:41.475Z,12.80
2018-12-03T10:29:29.323Z,12.80
2018-12-03T10:32:17.782Z,12.70
2018-12-03T10:35:05.766Z,12.70
2018-12-03T10:37:53.302Z,12.70
2018-12-03T10:40:42.610Z,12.60
2018-12-03T10:43:30.241Z,12.60
2018-12-03T10:46:17.775Z,12.60
2018-12-03T10:48:46.657Z,12.60
2018-12-03T10:51:34.276Z,12.60
2018-12-03T10:54:22.098Z,12.50
2018-12-03T10:57:10.470Z,12.40
2018-12-03T10:59:58.057Z,12.40
2018-12-03T11:03:05.413Z,12.40
2018-12-03T11:06:12.404Z,12.40
2018-12-03T11:09:00.530Z,12.60
2018-12-03T11:11:48.636Z,12.70
2018-12-03T11:14:36.506Z,12.80
2018-12-03T11:17:24.033Z,12.80
2018-12-03T11:20:11.611Z,12.90
2018-12-03T11:22:59.476Z,12.80
2018-12-03T11:25:47.354Z,12.80
2018-12-03T11:31:42.226Z,12.60
2018-12-03T11:34:30.056Z,12.50
2018-12-03T11:37:18.738Z,12.40
2018-12-03T11:43:27.786Z,12.20
2018-12-03T11:46:15.652Z,12.20
2018-12-03T11:49:03.582Z,12.20
2018-12-03T11:51:51.842Z,12.10
2018-12-03T11:54:39.667Z,12.10
2018-12-03T11:57:27.208Z,12.10
2018-12-03T12:00:34.297Z,12.10
2018-12-03T12:03:21.884Z,12.20
2018-12-03T12:06:09.566Z,12.30
2018-12-03T12:08:57.081Z,12.30
2018-12-03T12:11:45.128Z,12.30
2018-12-03T12:14:32.629Z,12.40
2018-12-03T12:17:20.154Z,12.40
2018-12-03T12:20:09.554Z,12.50
2018-12-03T12:22:57.584Z,12.60
2018-12-03T12:25:45.684Z,12.60
2018-12-03T12:28:38.042Z,12.50
2018-12-03T12:31:23.338Z,12.50
2018-12-03T12:34:11.210Z,12.40
2018-12-03T12:36:59.623Z,12.40
2018-12-03T12:39:47.151Z,12.30
2018-12-03T12:42:34.783Z,12.20
2018-12-03T12:45:24.339Z,12.20
2018-12-03T12:47:53.346Z,12.10
2018-12-03T12:50:40.980Z,12.10
2018-12-03T12:53:28.735Z,12.10
2018-12-03T12:56:16.662Z,12.00
2018-12-03T12:59:04.560Z,12.10
2018-12-03T13:01:52.103Z,12.20
2018-12-03T13:04:39.743Z,12.20
2018-12-03T13:07:27.324Z,12.30
2018-12-03T13:10:34.666Z,12.20
2018-12-03T13:13:22.505Z,12.30
2018-12-03T13:16:10.340Z,12.20
2018-12-03T13:18:57.867Z,12.00
2018-12-03T13:21:45.898Z,12.00
2018-12-03T13:24:33.876Z,11.90
2018-12-03T13:27:21.701Z,11.90
2018-12-03T13:30:28.741Z,11.90
2018-12-03T13:33:16.610Z,11.80
2018-12-03T13:39:32.376Z,11.50
2018-12-03T13:42:20.342Z,11.40
2018-12-03T13:45:27.048Z,11.40
2018-12-03T13:48:14.687Z,11.40
2018-12-03T13:51:02.584Z,11.40
2018-12-03T13:53:50.114Z,11.30
2018-12-03T13:56:38.532Z,11.30
2018-12-03T13:59:27.390Z,11.20
2018-12-03T14:02:15.376Z,11.30
2018-12-03T14:05:03.032Z,11.30
2018-12-03T14:08:09.733Z,11.30
2018-12-03T14:11:16.417Z,11.30
2018-12-03T14:14:10.729Z,11.30
2018-12-03T14:17:01.753Z,11.20
2018-12-03T14:20:10.237Z,11.20
2018-12-03T14:22:59.464Z,11.20
2018-12-03T14:25:47.160Z,11.20
2018-12-03T14:28:34.967Z,11.20
2018-12-03T14:31:22.848Z,11.20
2018-12-03T14:34:30.078Z,11.10
2018-12-03T14:37:18.818Z,11.10
2018-12-03T14:40:25.985Z,11.10
2018-12-03T14:43:13.629Z,11.10
2018-12-03T14:46:01.147Z,11.10
2018-12-03T14:48:48.690Z,11.00
2018-12-03T14:51:36.227Z,10.90
2018-12-03T14:54:23.910Z,10.90
2018-12-03T14:57:11.886Z,10.90
2018-12-03T14:59:40.445Z,10.90
2018-12-03T15:02:27.985Z,11.00
2018-12-03T15:05:15.836Z,11.00
2018-12-03T15:08:03.492Z,11.00
2018-12-03T15:10:51.679Z,11.00
2018-12-03T15:13:39.192Z,11.00
2018-12-03T15:16:26.955Z,10.90
2018-12-03T15:19:11.591Z,10.90
2018-12-03T15:21:49.318Z,10.90
2018-12-03T15:24:29.366Z,10.90
2018-12-03T15:27:09.685Z,11.00
2018-12-03T15:29:50.169Z,11.00
2018-12-03T15:32:31.033Z,11.00
2018-12-03T15:35:11.932Z,11.00
2018-12-03T15:37:52.696Z,10.90
2018-12-03T15:40:33.667Z,10.90
2018-12-03T15:43:14.557Z,10.90
2018-12-03T15:45:55.227Z,10.90
2018-12-03T15:48:35.525Z,10.90
2018-12-03T15:51:15.319Z,10.90
2018-12-03T15:53:55.567Z,10.90
2018-12-03T15:56:36.036Z,10.90
2018-12-03T15:59:16.622Z,10.90
2018-12-03T16:01:57.082Z,10.90
2018-12-03T16:04:37.912Z,10.80
2018-12-03T16:07:18.026Z,10.80
2018-12-03T16:09:57.928Z,10.80
2018-12-03T16:12:38.007Z,10.90
2018-12-03T16:15:18.714Z,10.90
2018-12-03T16:17:58.759Z,11.00
2018-12-03T16:20:39.027Z,11.10
2018-12-03T16:23:19.155Z,11.10
2018-12-03T16:25:59.625Z,11.10
2018-12-03T16:28:39.391Z,11.20
2018-12-03T16:31:18.304Z,11.30
2018-12-03T16:34:05.827Z,11.20
2018-12-03T16:36:53.910Z,11.20
2018-12-03T16:39:43.093Z,11.20
2018-12-03T16:42:30.973Z,11.30
2018-12-03T16:45:18.496Z,11.30
2018-12-03T16:48:06.453Z,11.20
2018-12-03T16:50:54.276Z,11.20
2018-12-03T16:53:41.799Z,11.10
2018-12-03T16:56:29.638Z,11.00
2018-12-03T16:59:17.156Z,11.00
2018-12-03T17:02:04.785Z,11.10
2018-12-03T17:04:52.636Z,11.10
2018-12-03T17:07:40.395Z,11.10
2018-12-03T17:10:28.154Z,11.10
2018-12-03T17:13:15.768Z,11.00
2018-12-03T17:16:03.623Z,11.00
2018-12-03T17:18:51.690Z,11.10
2018-12-03T17:21:58.581Z,11.10
2018-12-03T17:24:47.018Z,11.10
2018-12-03T17:27:34.532Z,11.00
2018-12-03T17:30:22.354Z,11.00
2018-12-03T17:33:10.180Z,11.00
2018-12-03T17:35:57.695Z,11.00
2018-12-03T17:38:45.447Z,11.00
2018-12-03T17:41:32.968Z,11.00
2018-12-03T17:44:20.470Z,11.00
2018-12-03T17:47:08.007Z,11.00
2018-12-03T17:49:55.762Z,11.00
2018-12-03T17:52:43.811Z,11.00
2018-12-03T17:58:25.027Z,11.20
2018-12-03T18:01:12.560Z,11.20
2018-12-03T18:04:00.069Z,11.10
2018-12-03T18:06:47.596Z,11.10
2018-12-03T18:09:35.216Z,11.10
2018-12-03T18:12:23.060Z,11.20
2018-12-03T18:15:10.579Z,11.20
2018-12-03T18:17:58.082Z,11.20
2018-12-03T18:20:45.708Z,11.20
2018-12-03T18:23:33.798Z,11.20
2018-12-03T18:26:21.572Z,11.20
2018-12-03T18:29:09.133Z,11.20
2018-12-03T18:31:57.248Z,11.10
2018-12-03T18:34:44.787Z,11.10
2018-12-03T18:37:32.638Z,11.20
2018-12-03T18:40:20.523Z,11.20
2018-12-03T18:43:08.048Z,11.20
2018-12-03T18:45:55.797Z,11.10
2018-12-03T18:48:44.104Z,11.10
2018-12-03T18:51:32.043Z,11.20
2018-12-03T18:54:19.539Z,11.20
2018-12-03T18:57:07.331Z,11.10
2018-12-03T18:59:55.444Z,11.10
2018-12-03T19:02:42.981Z,11.20
2018-12-03T19:05:30.493Z,11.20
2018-12-03T19:08:18.335Z,11.20
2018-12-03T19:11:06.204Z,11.20
2018-12-03T19:13:54.116Z,11.20
2018-12-03T19:16:42.088Z,11.20
2018-12-03T19:19:29.604Z,11.20
2018-12-03T19:22:17.134Z,11.20
2018-12-03T19:25:05.460Z,11.20
2018-12-03T19:27:52.976Z,11.20
2018-12-03T19:30:40.487Z,11.30
2018-12-03T19:33:28.119Z,11.30
2018-12-03T19:36:15.638Z,11.20
2018-12-03T19:42:17.916Z,11.00
2018-12-03T19:45:06.188Z,11.10
2018-12-03T19:47:53.802Z,11.00
2018-12-03T19:50:41.558Z,11.00
2018-12-03T19:56:23.015Z,11.00
2018-12-03T19:59:10.774Z,11.00
2018-12-03T20:05:25.014Z,11.00
2018-12-03T20:14:22.194Z,11.00
2018-12-03T20:17:10.994Z,11.00
2018-12-03T20:19:58.866Z,11.10
2018-12-03T20:23:05.874Z,11.10
2018-12-03T20:26:12.514Z,11.10
2018-12-03T20:29:19.651Z,11.20
2018-12-03T20:32:26.528Z,11.10
2018-12-03T20:35:33.185Z,11.10
2018-12-03T20:38:40.326Z,11.00
2018-12-03T20:41:29.778Z,11.10
2018-12-03T20:44:36.424Z,11.10
2018-12-03T20:47:26.199Z,11.10
2018-12-03T20:50:32.834Z,11.10
2018-12-03T20:53:39.476Z,11.10
2018-12-03T20:56:27.000Z,11.10
2018-12-03T20:59:14.620Z,11.10
2018-12-03T21:02:02.858Z,11.10
2018-12-03T21:04:50.731Z,11.10
2018-12-03T21:07:38.562Z,11.00
2018-12-03T21:10:26.363Z,11.00
2018-12-03T21:13:13.876Z,10.90
2018-12-03T21:16:01.995Z,11.00
2018-12-03T21:18:49.803Z,11.00
2018-12-03T21:21:37.323Z,10.90
2018-12-03T21:27:32.915Z,10.80
2018-12-03T21:30:01.719Z,10.70
2018-12-03T21:32:49.332Z,10.70
2018-12-03T21:35:37.423Z,10.70
2018-12-03T21:38:25.187Z,10.70
2018-12-03T21:41:12.978Z,10.80
2018-12-03T21:44:01.068Z,10.90
2018-12-03T21:46:49.040Z,11.00
2018-12-03T21:52:45.600Z,10.80
2018-12-03T21:55:33.452Z,10.80
2018-12-03T21:58:40.748Z,10.70
2018-12-03T22:01:28.280Z,10.80
2018-12-03T22:04:16.053Z,10.90
2018-12-03T22:07:04.091Z,11.00
2018-12-03T22:09:52.007Z,11.10
2018-12-03T22:12:39.836Z,11.20
2018-12-03T22:15:27.658Z,11.20
2018-12-03T22:20:50.403Z,11.10
2018-12-03T22:23:38.414Z,11.10
2018-12-03T22:26:26.906Z,11.20
2018-12-03T22:29:14.657Z,11.30
2018-12-03T22:32:02.442Z,11.30
2018-12-03T22:34:50.300Z,11.40
2018-12-03T22:37:38.399Z,11.50
2018-12-03T22:40:26.489Z,11.40
2018-12-03T22:43:14.382Z,11.30
2018-12-03T22:46:02.032Z,11.20
2018-12-03T22:48:49.987Z,11.20
2018-12-03T22:51:37.623Z,11.20
2018-12-03T22:54:25.795Z,11.10
2018-12-03T22:57:13.928Z,11.30
2018-12-03T23:00:02.311Z,11.30
2018-12-03T23:02:50.009Z,11.20
2018-12-03T23:05:37.683Z,11.20
2018-12-03T23:08:25.822Z,11.20
2018-12-03T23:11:13.371Z,11.10
2018-12-03T23:14:01.417Z,11.20
2018-12-03T23:16:49.216Z,11.20
2018-12-03T23:22:11.705Z,11.20
2018-12-03T23:24:59.480Z,11.20
2018-12-03T23:27:28.218Z,11.30
2018-12-03T23:30:15.924Z,11.40
2018-12-03T23:33:03.849Z,11.30
2018-12-03T23:35:51.590Z,11.30
2018-12-03T23:38:39.514Z,11.30
2018-12-03T23:41:27.197Z,11.30
2018-12-03T23:44:15.600Z,11.40
2018-12-03T23:47:03.652Z,11.40
2018-12-03T23:49:51.433Z,11.40
2018-12-03T23:52:39.849Z,11.30
2018-12-03T23:55:09.072Z,11.30
2018-12-03T23:58:18.162Z,11.30
